createdAt,value
2022-10-08T00:00:44.514Z,996.18
2022-10-08T00:01:44.603Z,996.25
2022-10-08T00:02:44.821Z,996.21
2022-10-08T00:03:44.553Z,996.26
2022-10-08T00:04:44.426Z,996.23
2022-10-08T00:05:44.407Z,996.27
2022-10-08T00:06:44.386Z,996.26
2022-10-08T00:07:44.375Z,996.25
2022-10-08T00:08:44.358Z,996.21
2022-10-08T00:09:44.344Z,996.19
2022-10-08T00:10:44.330Z,996.19
2022-10-08T00:11:44.315Z,996.17
2022-10-08T00:12:44.608Z,996.15
2022-10-08T00:13:44.283Z,996.14
2022-10-08T00:14:44.281Z,996.16
2022-10-08T00:15:51.957Z,996.19
2022-10-08T00:17:48.752Z,996.16
2022-10-08T00:18:48.674Z,996.14
2022-10-08T00:20:53.143Z,996.15
2022-10-08T00:21:53.131Z,996.21
2022-10-08T00:22:53.181Z,996.17
2022-10-08T00:23:53.109Z,996.16
2022-10-08T00:24:53.068Z,996.14
2022-10-08T00:25:53.082Z,996.15
2022-10-08T00:26:53.041Z,996.19
2022-10-08T00:27:53.022Z,996.13
2022-10-08T00:28:53.009Z,996.11
2022-10-08T00:29:52.993Z,996.14
2022-10-08T00:30:52.984Z,996.15
2022-10-08T00:31:53.029Z,996.21
2022-10-08T00:32:56.528Z,996.17
2022-10-08T00:33:52.934Z,996.19
2022-10-08T00:34:52.919Z,996.13
2022-10-08T00:35:52.906Z,996.14
2022-10-08T00:36:52.890Z,996.15
2022-10-08T00:37:52.873Z,996.16
2022-10-08T00:38:52.859Z,996.14
2022-10-08T00:39:52.846Z,996.14
2022-10-08T00:40:52.826Z,996.20
2022-10-08T00:41:52.814Z,996.16
2022-10-08T00:42:52.799Z,996.21
2022-10-08T00:43:52.829Z,996.18
2022-10-08T00:44:52.769Z,996.16
2022-10-08T00:45:52.814Z,996.18
2022-10-08T00:46:52.740Z,996.15
2022-10-08T00:47:52.726Z,996.10
2022-10-08T00:48:52.708Z,996.08
2022-10-08T00:49:52.694Z,996.08
2022-10-08T00:50:52.684Z,996.11
2022-10-08T00:51:52.666Z,996.13
2022-10-08T00:52:52.652Z,996.13
2022-10-08T00:53:52.632Z,996.14
2022-10-08T00:54:52.622Z,996.10
2022-10-08T00:55:52.602Z,996.12
2022-10-08T00:56:52.590Z,996.11
2022-10-08T00:57:52.594Z,996.07
2022-10-08T00:58:52.559Z,996.08
2022-10-08T00:59:52.544Z,996.07
2022-10-08T01:00:52.568Z,996.06
2022-10-08T01:01:52.564Z,996.06
2022-10-08T01:02:52.501Z,996.04
2022-10-08T01:03:52.483Z,996.05
2022-10-08T01:04:52.471Z,996.02
2022-10-08T01:05:52.455Z,996.03
2022-10-08T01:06:52.443Z,996.07
2022-10-08T01:07:52.426Z,996.06
2022-10-08T01:08:52.412Z,996.07
2022-10-08T01:09:52.394Z,996.09
2022-10-08T01:10:52.386Z,996.14
2022-10-08T01:11:52.368Z,996.14
2022-10-08T01:12:52.352Z,996.12
2022-10-08T01:13:52.334Z,996.10
2022-10-08T01:14:52.326Z,996.09
2022-10-08T01:15:52.302Z,996.09
2022-10-08T01:16:52.304Z,996.08
2022-10-08T01:17:52.299Z,996.07
2022-10-08T01:18:52.269Z,996.08
2022-10-08T01:19:52.245Z,996.09
2022-10-08T01:20:52.232Z,996.09
2022-10-08T01:21:52.216Z,996.05
2022-10-08T01:22:52.229Z,996.05
2022-10-08T01:23:52.186Z,996.08
2022-10-08T01:24:52.176Z,996.05
2022-10-08T01:25:52.157Z,996.06
2022-10-08T01:26:52.143Z,996.04
2022-10-08T01:27:52.134Z,996.01
2022-10-08T01:28:52.113Z,996.01
2022-10-08T01:29:52.101Z,996.07
2022-10-08T01:30:52.090Z,996.02
2022-10-08T01:31:52.102Z,996.05
2022-10-08T01:32:52.056Z,996.06
2022-10-08T01:33:52.037Z,996.05
2022-10-08T01:34:52.025Z,996.04
2022-10-08T01:35:52.005Z,996.02
2022-10-08T01:36:51.995Z,996.03
2022-10-08T01:37:51.976Z,995.99
2022-10-08T01:38:51.968Z,996.01
2022-10-08T01:39:51.947Z,996.05
2022-10-08T01:40:51.935Z,996.01
2022-10-08T01:41:51.919Z,996.03
2022-10-08T01:42:51.903Z,996.00
2022-10-08T01:43:51.890Z,996.08
2022-10-08T01:44:51.881Z,996.09
2022-10-08T01:45:51.933Z,996.07
2022-10-08T01:46:51.843Z,996.08
2022-10-08T01:47:51.830Z,996.08
2022-10-08T01:48:51.846Z,996.08
2022-10-08T01:49:51.797Z,996.11
2022-10-08T01:50:51.787Z,996.10
2022-10-08T01:51:51.769Z,996.12
2022-10-08T01:52:51.755Z,996.14
2022-10-08T01:53:51.739Z,996.12
2022-10-08T01:54:51.727Z,996.12
2022-10-08T01:55:51.707Z,996.10
2022-10-08T01:56:51.706Z,996.14
2022-10-08T01:57:51.687Z,996.14
2022-10-08T01:58:51.669Z,996.13
2022-10-08T01:59:51.662Z,996.09
2022-10-08T02:00:51.689Z,996.10
2022-10-08T02:01:51.667Z,996.07
2022-10-08T02:02:51.633Z,996.08
2022-10-08T02:03:51.589Z,996.03
2022-10-08T02:04:51.612Z,996.01
2022-10-08T02:05:51.566Z,996.00
2022-10-08T02:06:51.547Z,996.01
2022-10-08T02:07:51.529Z,996.06
2022-10-08T02:08:51.516Z,996.05
2022-10-08T02:09:51.497Z,996.02
2022-10-08T02:10:51.483Z,996.01
2022-10-08T02:11:51.471Z,996.01
2022-10-08T02:12:51.462Z,996.04
2022-10-08T02:13:51.439Z,996.03
2022-10-08T02:14:51.430Z,996.04
2022-10-08T02:15:51.532Z,996.01
2022-10-08T02:16:51.452Z,996.02
2022-10-08T02:17:51.377Z,996.08
2022-10-08T02:18:51.386Z,996.11
2022-10-08T02:19:51.348Z,996.10
2022-10-08T02:20:51.349Z,996.12
2022-10-08T02:21:51.356Z,996.11
2022-10-08T02:22:51.306Z,996.11
2022-10-08T02:23:51.289Z,996.09
2022-10-08T02:24:51.274Z,996.09
2022-10-08T02:25:51.266Z,996.08
2022-10-08T02:26:51.244Z,996.08
2022-10-08T02:27:51.235Z,996.12
2022-10-08T02:28:51.223Z,996.11
2022-10-08T02:29:51.199Z,996.13
2022-10-08T02:30:51.189Z,996.13
2022-10-08T02:31:51.191Z,996.11
2022-10-08T02:32:51.157Z,996.06
2022-10-08T02:33:51.142Z,996.09
2022-10-08T02:34:51.129Z,996.08
2022-10-08T02:35:51.132Z,996.09
2022-10-08T02:36:51.095Z,996.15
2022-10-08T02:37:51.081Z,996.14
2022-10-08T02:38:51.065Z,996.13
2022-10-08T02:39:51.049Z,996.14
2022-10-08T02:40:51.040Z,996.18
2022-10-08T02:41:51.019Z,996.17
2022-10-08T02:42:51.006Z,996.15
2022-10-08T02:43:50.991Z,996.16
2022-10-08T02:44:50.976Z,996.20
2022-10-08T02:45:51.039Z,996.19
2022-10-08T02:46:50.946Z,996.23
2022-10-08T02:47:50.935Z,996.22
2022-10-08T02:48:50.917Z,996.18
2022-10-08T02:49:50.898Z,996.19
2022-10-08T02:50:50.889Z,996.17
2022-10-08T02:51:50.869Z,996.16
2022-10-08T02:52:50.857Z,996.15
2022-10-08T02:53:50.847Z,996.14
2022-10-08T02:54:50.828Z,996.11
2022-10-08T02:55:50.811Z,996.11
2022-10-08T02:56:50.802Z,996.10
2022-10-08T02:57:50.790Z,996.11
2022-10-08T02:58:50.765Z,996.07
2022-10-08T02:59:50.750Z,996.15
2022-10-08T03:00:50.831Z,996.12
2022-10-08T03:01:50.814Z,996.11
2022-10-08T03:02:51.264Z,996.10
2022-10-08T03:03:50.687Z,996.15
2022-10-08T03:04:50.675Z,996.19
2022-10-08T03:05:50.660Z,996.20
2022-10-08T03:06:50.661Z,996.22
2022-10-08T03:07:50.635Z,996.24
2022-10-08T03:08:50.617Z,996.25
2022-10-08T03:09:50.602Z,996.25
2022-10-08T03:10:50.591Z,996.21
2022-10-08T03:11:50.573Z,996.19
2022-10-08T03:12:50.780Z,996.22
2022-10-08T03:13:50.537Z,996.22
2022-10-08T03:14:50.533Z,996.18
2022-10-08T03:15:50.509Z,996.25
2022-10-08T03:16:50.567Z,996.19
2022-10-08T03:17:50.490Z,996.23
2022-10-08T03:18:50.468Z,996.19
2022-10-08T03:19:50.448Z,996.19
2022-10-08T03:20:50.435Z,996.21
2022-10-08T03:21:50.420Z,996.24
2022-10-08T03:22:50.471Z,996.27
2022-10-08T03:23:50.401Z,996.29
2022-10-08T03:24:53.707Z,996.28
2022-10-08T03:25:50.363Z,996.25
2022-10-08T03:26:50.345Z,996.26
2022-10-08T03:27:50.333Z,996.28
2022-10-08T03:28:50.311Z,996.24
2022-10-08T03:29:50.295Z,996.23
2022-10-08T03:30:50.352Z,996.23
2022-10-08T03:31:50.266Z,996.26
2022-10-08T03:32:50.251Z,996.27
2022-10-08T03:33:50.235Z,996.27
2022-10-08T03:34:50.221Z,996.25
2022-10-08T03:35:50.204Z,996.23
2022-10-08T03:36:50.189Z,996.21
2022-10-08T03:37:50.175Z,996.22
2022-10-08T03:38:50.157Z,996.22
2022-10-08T03:39:50.143Z,996.21
2022-10-08T03:40:50.127Z,996.21
2022-10-08T03:41:50.113Z,996.21
2022-10-08T03:42:50.167Z,996.21
2022-10-08T03:43:50.098Z,996.25
2022-10-08T03:44:50.074Z,996.19
2022-10-08T03:45:50.076Z,996.25
2022-10-08T03:46:50.040Z,996.22
2022-10-08T03:47:50.023Z,996.23
2022-10-08T03:48:50.010Z,996.20
2022-10-08T03:49:49.994Z,996.21
2022-10-08T03:50:49.977Z,996.19
2022-10-08T03:51:49.967Z,996.22
2022-10-08T03:52:50.227Z,996.19
2022-10-08T03:53:49.931Z,996.26
2022-10-08T03:54:49.917Z,996.27
2022-10-08T03:55:49.900Z,996.28
2022-10-08T03:56:49.881Z,996.25
2022-10-08T03:57:49.869Z,996.25
2022-10-08T03:58:49.852Z,996.30
2022-10-08T03:59:49.857Z,996.31
2022-10-08T04:00:49.823Z,996.30
2022-10-08T04:01:49.884Z,996.33
2022-10-08T04:02:50.286Z,996.31
2022-10-08T04:03:49.796Z,996.33
2022-10-08T04:04:49.764Z,996.35
2022-10-08T04:05:49.755Z,996.32
2022-10-08T04:06:49.729Z,996.35
2022-10-08T04:07:49.717Z,996.32
2022-10-08T04:08:49.698Z,996.35
2022-10-08T04:09:49.684Z,996.35
2022-10-08T04:10:49.687Z,996.36
2022-10-08T04:11:49.654Z,996.35
2022-10-08T04:12:49.933Z,996.39
2022-10-08T04:13:49.621Z,996.40
2022-10-08T04:14:49.605Z,996.43
2022-10-08T04:15:49.622Z,996.42
2022-10-08T04:16:49.576Z,996.44
2022-10-08T04:17:49.561Z,996.45
2022-10-08T04:18:49.556Z,996.44
2022-10-08T04:19:49.529Z,996.46
2022-10-08T04:20:49.512Z,996.47
2022-10-08T04:21:49.501Z,996.48
2022-10-08T04:22:49.836Z,996.50
2022-10-08T04:23:49.463Z,996.49
2022-10-08T04:24:49.444Z,996.51
2022-10-08T04:25:49.436Z,996.54
2022-10-08T04:26:49.417Z,996.50
2022-10-08T04:27:49.428Z,996.49
2022-10-08T04:28:49.429Z,996.48
2022-10-08T04:29:49.367Z,996.50
2022-10-08T04:30:49.387Z,996.52
2022-10-08T04:31:49.336Z,996.52
2022-10-08T04:32:49.593Z,996.54
2022-10-08T04:33:49.305Z,996.58
2022-10-08T04:34:49.293Z,996.56
2022-10-08T04:35:49.271Z,996.60
2022-10-08T04:36:49.266Z,996.57
2022-10-08T04:37:49.244Z,996.59
2022-10-08T04:38:49.236Z,996.61
2022-10-08T04:39:49.210Z,996.61
2022-10-08T04:40:49.189Z,996.62
2022-10-08T04:41:49.187Z,996.64
2022-10-08T04:42:49.469Z,996.60
2022-10-08T04:43:49.146Z,996.61
2022-10-08T04:44:49.129Z,996.61
2022-10-08T04:45:49.120Z,996.57
2022-10-08T04:46:49.160Z,996.60
2022-10-08T04:47:49.081Z,996.56
2022-10-08T04:48:49.070Z,996.57
2022-10-08T04:49:49.047Z,996.56
2022-10-08T04:50:49.034Z,996.58
2022-10-08T04:51:49.040Z,996.60
2022-10-08T04:52:49.349Z,996.59
2022-10-08T04:53:49.005Z,996.60
2022-10-08T04:54:48.976Z,996.65
2022-10-08T04:55:48.950Z,996.61
2022-10-08T04:56:48.937Z,996.67
2022-10-08T04:57:48.931Z,996.62
2022-10-08T04:58:48.901Z,996.65
2022-10-08T05:00:13.052Z,996.66
2022-10-08T05:00:48.866Z,996.65
2022-10-08T05:01:48.924Z,996.68
2022-10-08T05:02:49.166Z,996.69
2022-10-08T05:03:48.819Z,996.68
2022-10-08T05:04:48.804Z,996.72
2022-10-08T05:05:48.795Z,996.70
2022-10-08T05:06:48.781Z,996.69
2022-10-08T05:07:48.756Z,996.69
2022-10-08T05:08:48.743Z,996.68
2022-10-08T05:09:48.724Z,996.68
2022-10-08T05:10:48.705Z,996.71
2022-10-08T05:11:48.691Z,996.74
2022-10-08T05:12:49.110Z,996.73
2022-10-08T05:13:48.659Z,996.74
2022-10-08T05:14:48.640Z,996.78
2022-10-08T05:15:48.752Z,996.81
2022-10-08T05:16:48.629Z,996.80
2022-10-08T05:17:48.595Z,996.83
2022-10-08T05:18:48.576Z,996.80
2022-10-08T05:19:48.564Z,996.86
2022-10-08T05:20:48.550Z,996.87
2022-10-08T05:21:48.527Z,996.89
2022-10-08T05:22:48.935Z,996.91
2022-10-08T05:23:48.498Z,996.90
2022-10-08T05:24:48.499Z,996.91
2022-10-08T05:25:48.470Z,996.94
2022-10-08T05:27:03.697Z,996.95
2022-10-08T05:27:48.435Z,996.95
2022-10-08T05:28:48.471Z,996.94
2022-10-08T05:29:48.395Z,996.92
2022-10-08T05:30:48.429Z,996.95
2022-10-08T05:31:48.363Z,996.96
2022-10-08T05:32:48.924Z,997.00
2022-10-08T05:33:48.332Z,997.02
2022-10-08T05:34:48.313Z,997.00
2022-10-08T05:35:48.298Z,997.04
2022-10-08T05:36:48.284Z,997.09
2022-10-08T05:37:48.267Z,997.02
2022-10-08T05:38:48.250Z,997.07
2022-10-08T05:39:48.230Z,997.04
2022-10-08T05:40:48.229Z,997.09
2022-10-08T05:41:48.202Z,997.05
2022-10-08T05:42:48.484Z,997.07
2022-10-08T05:43:48.166Z,997.08
2022-10-08T05:44:48.149Z,997.10
2022-10-08T05:45:48.133Z,997.10
2022-10-08T05:46:48.172Z,997.10
2022-10-08T05:47:48.099Z,997.10
2022-10-08T05:48:48.083Z,997.16
2022-10-08T05:49:48.071Z,997.13
2022-10-08T05:50:48.055Z,997.14
2022-10-08T05:51:48.041Z,997.12
2022-10-08T05:52:48.314Z,997.14
2022-10-08T05:53:48.007Z,997.14
2022-10-08T05:54:47.982Z,997.13
2022-10-08T05:55:47.976Z,997.14
2022-10-08T05:56:47.956Z,997.13
2022-10-08T05:57:47.948Z,997.15
2022-10-08T05:58:47.917Z,997.19
2022-10-08T05:59:47.914Z,997.17
2022-10-08T06:00:47.887Z,997.17
2022-10-08T06:01:47.893Z,997.16
2022-10-08T06:02:48.196Z,997.13
2022-10-08T06:03:47.836Z,997.17
2022-10-08T06:04:47.888Z,997.16
2022-10-08T06:05:47.808Z,997.17
2022-10-08T06:06:47.791Z,997.16
2022-10-08T06:07:47.771Z,997.19
2022-10-08T06:08:47.750Z,997.21
2022-10-08T06:09:47.739Z,997.20
2022-10-08T06:10:47.722Z,997.25
2022-10-08T06:11:47.704Z,997.25
2022-10-08T06:12:48.113Z,997.24
2022-10-08T06:13:47.694Z,997.30
2022-10-08T06:14:47.653Z,997.26
2022-10-08T06:15:47.672Z,997.27
2022-10-08T06:16:55.290Z,997.34
2022-10-08T06:18:53.075Z,997.38
2022-10-08T06:19:53.037Z,997.36
2022-10-08T06:21:57.490Z,997.41
2022-10-08T06:22:57.453Z,997.41
2022-10-08T06:25:01.893Z,997.42
2022-10-08T06:26:01.867Z,997.47
2022-10-08T06:27:56.250Z,997.47
2022-10-08T06:28:56.216Z,997.44
2022-10-08T06:31:00.716Z,997.47
2022-10-08T06:32:00.633Z,997.46
2022-10-08T06:34:05.107Z,997.47
2022-10-08T06:35:05.037Z,997.50
2022-10-08T06:37:09.489Z,997.49
2022-10-08T06:38:09.453Z,997.51
2022-10-08T06:40:14.894Z,997.53
2022-10-08T06:41:14.873Z,997.56
2022-10-08T06:43:20.338Z,997.54
2022-10-08T06:44:20.293Z,997.57
2022-10-08T06:46:25.826Z,997.58
2022-10-08T06:47:25.710Z,997.56
2022-10-08T06:49:30.149Z,997.60
2022-10-08T06:50:30.130Z,997.59
2022-10-08T06:52:34.587Z,997.56
2022-10-08T06:53:34.556Z,997.59
2022-10-08T06:55:39.017Z,997.58
2022-10-08T06:56:38.998Z,997.62
2022-10-08T06:58:44.446Z,997.62
2022-10-08T06:59:44.412Z,997.67
2022-10-08T07:01:48.960Z,997.65
2022-10-08T07:02:49.529Z,997.68
2022-10-08T07:04:54.313Z,997.67
2022-10-08T07:05:54.292Z,997.68
2022-10-08T07:07:47.717Z,997.72
2022-10-08T07:08:47.681Z,997.70
2022-10-08T07:10:52.128Z,997.70
2022-10-08T07:11:52.108Z,997.74
2022-10-08T07:13:56.619Z,997.75
2022-10-08T07:14:56.554Z,997.75
2022-10-08T07:17:01.008Z,997.80
2022-10-08T07:18:00.972Z,997.78
2022-10-08T07:20:05.419Z,997.79
2022-10-08T07:21:05.399Z,997.79
2022-10-08T07:23:11.710Z,997.78
2022-10-08T07:24:11.676Z,997.80
2022-10-08T07:26:16.127Z,997.81
2022-10-08T07:27:16.090Z,997.81
2022-10-08T07:28:16.129Z,997.84
2022-10-08T07:29:16.058Z,997.85
2022-10-08T07:30:16.042Z,997.87
2022-10-08T07:31:16.127Z,997.90
2022-10-08T07:32:16.009Z,997.83
2022-10-08T07:33:15.994Z,997.93
2022-10-08T07:34:15.979Z,997.92
2022-10-08T07:35:15.964Z,997.91
2022-10-08T07:36:15.949Z,997.92
2022-10-08T07:37:15.930Z,997.92
2022-10-08T07:38:15.916Z,997.92
2022-10-08T07:39:15.898Z,997.95
2022-10-08T07:40:15.887Z,997.93
2022-10-08T07:41:15.869Z,997.95
2022-10-08T07:42:15.859Z,997.97
2022-10-08T07:43:19.651Z,997.93
2022-10-08T07:44:15.824Z,997.99
2022-10-08T07:45:15.812Z,998.02
2022-10-08T07:46:15.820Z,997.98
2022-10-08T07:47:15.775Z,998.00
2022-10-08T07:48:15.761Z,998.09
2022-10-08T07:49:15.748Z,998.07
2022-10-08T07:50:15.738Z,998.03
2022-10-08T07:51:15.727Z,998.06
2022-10-08T07:52:15.707Z,998.05
2022-10-08T07:53:15.687Z,998.10
2022-10-08T07:54:15.674Z,998.07
2022-10-08T07:55:15.653Z,998.09
2022-10-08T07:56:15.641Z,998.08
2022-10-08T07:57:15.625Z,998.08
2022-10-08T07:58:15.611Z,998.11
2022-10-08T07:59:15.595Z,998.13
2022-10-08T08:00:15.584Z,998.14
2022-10-08T08:01:15.611Z,998.09
2022-10-08T08:02:15.576Z,998.11
2022-10-08T08:03:15.536Z,998.14
2022-10-08T08:04:15.524Z,998.18
2022-10-08T08:05:15.509Z,998.16
2022-10-08T08:06:15.505Z,998.13
2022-10-08T08:07:15.479Z,998.13
2022-10-08T08:08:15.469Z,998.11
2022-10-08T08:09:15.450Z,998.14
2022-10-08T08:10:15.435Z,998.12
2022-10-08T08:11:15.420Z,998.14
2022-10-08T08:12:15.408Z,998.15
2022-10-08T08:13:15.393Z,998.14
2022-10-08T08:14:15.379Z,998.20
2022-10-08T08:15:15.364Z,998.20
2022-10-08T08:16:15.418Z,998.19
2022-10-08T08:17:15.336Z,998.22
2022-10-08T08:18:15.325Z,998.21
2022-10-08T08:19:15.306Z,998.25
2022-10-08T08:20:15.293Z,998.24
2022-10-08T08:21:15.279Z,998.22
2022-10-08T08:22:15.264Z,998.27
2022-10-08T08:23:15.248Z,998.26
2022-10-08T08:24:15.246Z,998.31
2022-10-08T08:25:15.223Z,998.37
2022-10-08T08:26:15.209Z,998.33
2022-10-08T08:27:15.195Z,998.35
2022-10-08T08:28:15.256Z,998.36
2022-10-08T08:29:15.169Z,998.38
2022-10-08T08:30:15.153Z,998.38
2022-10-08T08:31:15.137Z,998.39
2022-10-08T08:32:15.173Z,998.38
2022-10-08T08:33:15.111Z,998.40
2022-10-08T08:34:15.099Z,998.43
2022-10-08T08:35:15.082Z,998.45
2022-10-08T08:36:15.074Z,998.46
2022-10-08T08:37:15.055Z,998.42
2022-10-08T08:38:15.041Z,998.48
2022-10-08T08:39:15.029Z,998.49
2022-10-08T08:40:15.015Z,998.49
2022-10-08T08:41:19.789Z,998.55
2022-10-08T08:42:14.992Z,998.52
2022-10-08T08:43:14.976Z,998.50
2022-10-08T08:44:14.964Z,998.52
2022-10-08T08:45:34.344Z,998.52
2022-10-08T08:46:14.988Z,998.56
2022-10-08T08:47:14.927Z,998.59
2022-10-08T08:48:14.908Z,998.56
2022-10-08T08:49:14.902Z,998.57
2022-10-08T08:50:14.883Z,998.61
2022-10-08T08:51:14.872Z,998.59
2022-10-08T08:52:14.860Z,998.59
2022-10-08T08:53:14.849Z,998.63
2022-10-08T08:54:14.832Z,998.58
2022-10-08T08:55:14.821Z,998.65
2022-10-08T08:56:14.806Z,998.61
2022-10-08T08:57:14.795Z,998.59
2022-10-08T08:58:14.785Z,998.64
2022-10-08T08:59:14.772Z,998.64
2022-10-08T09:00:14.758Z,998.61
2022-10-08T09:01:14.780Z,998.62
2022-10-08T09:02:14.738Z,998.62
2022-10-08T09:03:14.728Z,998.67
2022-10-08T09:04:14.712Z,998.64
2022-10-08T09:05:14.758Z,998.64
2022-10-08T09:06:14.688Z,998.67
2022-10-08T09:07:14.675Z,998.70
2022-10-08T09:08:14.666Z,998.72
2022-10-08T09:09:14.654Z,998.67
2022-10-08T09:10:14.642Z,998.69
2022-10-08T09:11:14.630Z,998.65
2022-10-08T09:12:18.626Z,998.69
2022-10-08T09:13:14.604Z,998.70
2022-10-08T09:14:14.622Z,998.71
2022-10-08T09:15:14.591Z,998.71
2022-10-08T09:16:14.609Z,998.71
2022-10-08T09:17:14.558Z,998.73
2022-10-08T09:18:14.545Z,998.75
2022-10-08T09:19:14.539Z,998.75
2022-10-08T09:20:14.525Z,998.76
2022-10-08T09:21:14.519Z,998.73
2022-10-08T09:22:14.504Z,998.77
2022-10-08T09:23:14.493Z,998.78
2022-10-08T09:24:14.483Z,998.77
2022-10-08T09:25:14.468Z,998.78
2022-10-08T09:26:14.459Z,998.73
2022-10-08T09:27:14.446Z,998.77
2022-10-08T09:28:14.549Z,998.74
2022-10-08T09:29:14.431Z,998.71
2022-10-08T09:30:14.413Z,998.73
2022-10-08T09:31:14.501Z,998.74
2022-10-08T09:32:14.393Z,998.76
2022-10-08T09:33:14.385Z,998.77
2022-10-08T09:34:14.382Z,998.74
2022-10-08T09:35:14.361Z,998.78
2022-10-08T09:36:14.352Z,998.80
2022-10-08T09:37:14.347Z,998.80
2022-10-08T09:38:14.333Z,998.86
2022-10-08T09:39:14.326Z,998.86
2022-10-08T09:40:14.311Z,998.83
2022-10-08T09:41:14.302Z,998.90
2022-10-08T09:42:14.290Z,998.85
2022-10-08T09:43:14.283Z,998.85
2022-10-08T09:44:14.269Z,998.85
2022-10-08T09:45:14.269Z,998.82
2022-10-08T09:46:14.274Z,998.78
2022-10-08T09:47:14.242Z,998.86
2022-10-08T09:48:14.230Z,998.81
2022-10-08T09:49:14.232Z,998.81
2022-10-08T09:50:14.217Z,998.85
2022-10-08T09:51:14.201Z,998.84
2022-10-08T09:52:17.073Z,998.85
2022-10-08T09:53:14.181Z,998.92
2022-10-08T09:54:14.171Z,998.91
2022-10-08T09:55:14.161Z,998.87
2022-10-08T09:56:14.149Z,998.96
2022-10-08T09:57:14.140Z,998.91
2022-10-08T09:58:14.131Z,998.97
2022-10-08T09:59:14.120Z,999.00
2022-10-08T10:00:14.108Z,999.00
2022-10-08T10:01:14.171Z,998.99
2022-10-08T10:02:14.090Z,998.98
2022-10-08T10:03:14.077Z,998.98
2022-10-08T10:04:14.107Z,998.97
2022-10-08T10:05:14.055Z,999.00
2022-10-08T10:06:17.814Z,999.00
2022-10-08T10:07:14.029Z,999.00
2022-10-08T10:08:14.021Z,999.02
2022-10-08T10:09:14.018Z,999.05
2022-10-08T10:10:13.996Z,999.01
2022-10-08T10:11:13.986Z,999.06
2022-10-08T10:12:13.974Z,999.08
2022-10-08T10:13:13.959Z,999.04
2022-10-08T10:14:13.950Z,999.05
2022-10-08T10:15:13.939Z,999.09
2022-10-08T10:16:13.918Z,999.11
2022-10-08T10:17:13.911Z,999.12
2022-10-08T10:18:13.896Z,999.10
2022-10-08T10:19:13.884Z,999.11
2022-10-08T10:20:13.873Z,999.13
2022-10-08T10:21:13.860Z,999.09
2022-10-08T10:22:13.848Z,999.09
2022-10-08T10:23:13.832Z,999.09
2022-10-08T10:24:13.824Z,999.07
2022-10-08T10:25:13.830Z,999.03
2022-10-08T10:26:13.801Z,999.04
2022-10-08T10:27:13.781Z,999.05
2022-10-08T10:28:13.824Z,999.02
2022-10-08T10:29:13.769Z,999.02
2022-10-08T10:30:13.747Z,999.01
2022-10-08T10:31:13.791Z,999.00
2022-10-08T10:32:14.794Z,999.04
2022-10-08T10:33:13.706Z,999.04
2022-10-08T10:34:13.698Z,999.03
2022-10-08T10:35:13.681Z,999.04
2022-10-08T10:36:13.670Z,999.05
2022-10-08T10:37:13.657Z,999.04
2022-10-08T10:38:13.645Z,999.04
2022-10-08T10:39:13.631Z,999.07
2022-10-08T10:40:13.617Z,999.08
2022-10-08T10:41:13.603Z,999.04
2022-10-08T10:42:13.593Z,999.02
2022-10-08T10:43:13.578Z,999.04
2022-10-08T10:44:13.577Z,999.04
2022-10-08T10:45:13.552Z,999.04
2022-10-08T10:46:13.589Z,999.08
2022-10-08T10:47:13.525Z,999.05
2022-10-08T10:48:13.509Z,999.11
2022-10-08T10:49:13.500Z,999.14
2022-10-08T10:50:13.489Z,999.20
2022-10-08T10:51:13.473Z,999.13
2022-10-08T10:52:13.459Z,999.19
2022-10-08T10:53:13.450Z,999.24
2022-10-08T10:54:13.438Z,999.20
2022-10-08T10:55:13.423Z,999.23
2022-10-08T10:56:13.409Z,999.27
2022-10-08T10:57:13.400Z,999.28
2022-10-08T10:58:13.384Z,999.29
2022-10-08T10:59:13.375Z,999.30
2022-10-08T11:00:13.360Z,999.30
2022-10-08T11:01:13.384Z,999.30
2022-10-08T11:02:13.372Z,999.27
2022-10-08T11:03:13.323Z,999.30
2022-10-08T11:04:13.310Z,999.30
2022-10-08T11:05:13.300Z,999.27
2022-10-08T11:06:13.295Z,999.31
2022-10-08T11:07:13.273Z,999.33
2022-10-08T11:08:13.260Z,999.36
2022-10-08T11:09:13.252Z,999.40
2022-10-08T11:10:13.241Z,999.43
2022-10-08T11:11:13.225Z,999.40
2022-10-08T11:12:13.218Z,999.42
2022-10-08T11:13:13.201Z,999.41
2022-10-08T11:14:13.194Z,999.41
2022-10-08T11:15:13.174Z,999.37
2022-10-08T11:16:13.188Z,999.37
2022-10-08T11:17:13.151Z,999.42
2022-10-08T11:18:13.142Z,999.39
2022-10-08T11:19:13.123Z,999.36
2022-10-08T11:20:13.111Z,999.35
2022-10-08T11:21:13.100Z,999.37
2022-10-08T11:22:13.084Z,999.37
2022-10-08T11:23:13.072Z,999.38
2022-10-08T11:24:13.058Z,999.34
2022-10-08T11:25:13.048Z,999.45
2022-10-08T11:26:22.476Z,999.41
2022-10-08T11:27:13.021Z,999.44
2022-10-08T11:28:13.097Z,999.39
2022-10-08T11:29:13.004Z,999.41
2022-10-08T11:30:12.983Z,999.39
2022-10-08T11:31:13.024Z,999.33
2022-10-08T11:32:12.963Z,999.41
2022-10-08T11:33:12.955Z,999.43
2022-10-08T11:34:12.928Z,999.44
2022-10-08T11:35:12.917Z,999.47
2022-10-08T11:36:12.903Z,999.47
2022-10-08T11:37:12.892Z,999.48
2022-10-08T11:38:12.883Z,999.43
2022-10-08T11:39:12.865Z,999.42
2022-10-08T11:40:12.854Z,999.39
2022-10-08T11:41:12.840Z,999.40
2022-10-08T11:42:12.825Z,999.46
2022-10-08T11:43:12.815Z,999.43
2022-10-08T11:44:12.802Z,999.42
2022-10-08T11:45:12.790Z,999.43
2022-10-08T11:46:12.845Z,999.47
2022-10-08T11:47:12.770Z,999.44
2022-10-08T11:48:12.750Z,999.47
2022-10-08T11:49:12.737Z,999.47
2022-10-08T11:50:12.723Z,999.45
2022-10-08T11:51:12.711Z,999.46
2022-10-08T11:52:12.697Z,999.49
2022-10-08T11:53:12.685Z,999.50
2022-10-08T11:54:12.673Z,999.51
2022-10-08T11:55:12.665Z,999.49
2022-10-08T11:56:12.648Z,999.49
2022-10-08T11:57:12.637Z,999.48
2022-10-08T11:58:12.622Z,999.50
2022-10-08T11:59:12.615Z,999.54
2022-10-08T12:00:12.593Z,999.54
2022-10-08T12:01:12.585Z,999.53
2022-10-08T12:02:12.644Z,999.53
2022-10-08T12:03:12.685Z,999.59
2022-10-08T12:04:12.551Z,999.59
2022-10-08T12:05:12.536Z,999.54
2022-10-08T12:06:12.526Z,999.55
2022-10-08T12:07:12.508Z,999.54
2022-10-08T12:08:12.492Z,999.55
2022-10-08T12:09:12.480Z,999.55
2022-10-08T12:10:12.467Z,999.50
2022-10-08T12:11:12.456Z,999.51
2022-10-08T12:12:12.438Z,999.48
2022-10-08T12:13:17.405Z,999.51
2022-10-08T12:14:12.426Z,999.51
2022-10-08T12:15:12.404Z,999.52
2022-10-08T12:16:12.414Z,999.53
2022-10-08T12:17:12.382Z,999.55
2022-10-08T12:18:12.364Z,999.51
2022-10-08T12:19:12.353Z,999.49
2022-10-08T12:20:12.364Z,999.50
2022-10-08T12:21:12.325Z,999.54
2022-10-08T12:22:12.315Z,999.51
2022-10-08T12:23:12.322Z,999.52
2022-10-08T12:24:12.286Z,999.55
2022-10-08T12:25:12.272Z,999.53
2022-10-08T12:26:12.260Z,999.51
2022-10-08T12:27:12.248Z,999.51
2022-10-08T12:28:12.260Z,999.47
2022-10-08T12:29:12.222Z,999.50
2022-10-08T12:30:12.330Z,999.50
2022-10-08T12:31:12.251Z,999.44
2022-10-08T12:32:12.181Z,999.49
2022-10-08T12:33:12.170Z,999.49
2022-10-08T12:34:12.158Z,999.52
2022-10-08T12:35:12.143Z,999.48
2022-10-08T12:36:12.134Z,999.49
2022-10-08T12:37:15.799Z,999.50
2022-10-08T12:38:12.109Z,999.49
2022-10-08T12:39:12.099Z,999.48
2022-10-08T12:40:12.099Z,999.46
2022-10-08T12:41:12.072Z,999.44
2022-10-08T12:42:12.057Z,999.47
2022-10-08T12:43:12.043Z,999.48
2022-10-08T12:44:12.036Z,999.46
2022-10-08T12:45:12.021Z,999.48
2022-10-08T12:46:12.034Z,999.46
2022-10-08T12:47:11.995Z,999.47
2022-10-08T12:48:11.985Z,999.44
2022-10-08T12:49:11.971Z,999.44
2022-10-08T12:50:12.022Z,999.38
2022-10-08T12:51:11.947Z,999.40
2022-10-08T12:52:11.938Z,999.41
2022-10-08T12:53:11.922Z,999.43
2022-10-08T12:54:11.918Z,999.41
2022-10-08T12:55:11.904Z,999.42